createdAt,value
2023-02-13T00:00:18.333Z,30.41
2023-02-13T00:01:18.373Z,30.44
2023-02-13T00:02:18.457Z,32.48
2023-02-13T00:03:18.602Z,31.47
2023-02-13T00:04:18.550Z,27.18
2023-02-13T00:05:18.649Z,29.78
2023-02-13T00:06:18.700Z,30.76
2023-02-13T00:07:18.746Z,27.91
2023-02-13T00:08:18.798Z,28.94
2023-02-13T00:09:18.893Z,31.03
2023-02-13T00:10:18.931Z,30.12
2023-02-13T00:11:18.980Z,27.86
2023-02-13T00:12:19.040Z,31.42
2023-02-13T00:13:19.092Z,29.95
2023-02-13T00:14:19.156Z,30.64
2023-02-13T00:15:19.220Z,27.60
2023-02-13T00:16:19.278Z,28.64
2023-02-13T00:17:19.341Z,29.21
2023-02-13T00:18:19.410Z,30.03
2023-02-13T00:19:19.462Z,29.30
2023-02-13T00:20:19.543Z,29.95
2023-02-13T00:21:19.599Z,29.24
2023-02-13T00:22:19.661Z,30.58
2023-02-13T00:23:19.713Z,30.26
2023-02-13T00:24:19.781Z,29.03
2023-02-13T00:25:19.844Z,27.78
2023-02-13T00:26:19.899Z,31.21
2023-02-13T00:27:19.960Z,29.10
2023-02-13T00:28:20.061Z,26.99
2023-02-13T00:29:20.087Z,29.53
2023-02-13T00:30:20.189Z,29.21
2023-02-13T00:31:20.437Z,27.79
2023-02-13T00:32:20.322Z,30.82
2023-02-13T00:33:20.331Z,31.22
2023-02-13T00:34:20.392Z,28.83
2023-02-13T00:35:20.463Z,28.86
2023-02-13T00:36:20.519Z,30.95
2023-02-13T01:49:25.174Z,28.50
2023-02-13T01:50:25.238Z,31.23
2023-02-13T01:51:25.312Z,27.58
2023-02-13T01:52:25.365Z,30.27
2023-02-13T01:53:25.474Z,31.11
2023-02-13T01:54:25.500Z,31.07
2023-02-13T01:55:25.579Z,28.40
2023-02-13T01:56:25.635Z,30.13
2023-02-13T01:57:25.702Z,29.73
2023-02-13T01:58:25.768Z,29.36
2023-02-13T01:59:25.832Z,28.13
2023-02-13T02:00:25.897Z,29.34
2023-02-13T02:01:25.982Z,30.39
2023-02-13T02:02:26.217Z,28.64
2023-02-13T02:03:26.081Z,29.28
2023-02-13T02:04:26.148Z,31.04
2023-02-13T02:05:26.213Z,29.18
2023-02-13T02:06:26.295Z,28.01
2023-02-13T02:07:26.358Z,27.66
2023-02-13T02:08:26.405Z,30.65
2023-02-13T02:09:26.482Z,29.57
2023-02-13T02:10:26.542Z,29.43
2023-02-13T02:11:26.614Z,30.07
2023-02-13T02:12:26.672Z,28.97
2023-02-13T02:13:26.744Z,29.82
2023-02-13T02:14:26.800Z,29.68
2023-02-13T02:15:26.866Z,27.94
2023-02-13T02:16:27.051Z,30.20
2023-02-13T02:17:26.997Z,29.51
2023-02-13T02:18:27.064Z,28.74
2023-02-13T02:19:27.117Z,30.14
2023-02-13T02:20:27.185Z,28.17
2023-02-13T02:21:27.254Z,31.31
2023-02-13T02:22:27.328Z,27.60
2023-02-13T02:23:27.400Z,28.41
2023-02-13T02:24:27.468Z,28.67
2023-02-13T02:25:27.536Z,27.63
2023-02-13T02:26:27.633Z,27.75
2023-02-13T02:27:27.676Z,29.89
2023-02-13T02:28:27.797Z,29.14
2023-02-13T02:29:27.802Z,30.17
2023-02-13T02:30:27.896Z,29.50
2023-02-13T02:31:27.998Z,28.19
2023-02-13T02:32:27.993Z,30.14
2023-02-13T02:33:28.056Z,28.85
2023-02-13T02:34:28.122Z,29.55
2023-02-13T02:35:28.188Z,31.38
2023-02-13T02:36:28.241Z,29.36
2023-02-13T02:37:28.320Z,30.87
2023-02-13T02:38:28.360Z,30.66
2023-02-13T02:39:28.445Z,29.47
2023-02-13T02:40:28.500Z,29.98
2023-02-13T02:41:28.565Z,30.16
2023-02-13T02:42:28.637Z,30.90
2023-02-13T02:43:28.695Z,30.72
2023-02-13T02:44:28.776Z,29.75
2023-02-13T02:45:28.832Z,30.46
2023-02-13T02:47:28.961Z,28.95
2023-02-13T02:48:29.026Z,29.26
2023-02-13T02:49:29.106Z,31.01
2023-02-13T02:51:29.224Z,28.93
2023-02-13T02:53:29.379Z,28.86
2023-02-13T02:54:29.417Z,29.03
2023-02-13T02:56:30.657Z,26.62
2023-02-13T02:57:29.613Z,30.83
2023-02-13T02:58:29.675Z,30.27
2023-02-13T02:59:29.745Z,30.14
2023-02-13T03:00:29.906Z,29.83
2023-02-13T03:01:29.871Z,26.64
2023-02-13T03:02:29.927Z,28.59
2023-02-13T03:03:29.998Z,28.42
2023-02-13T03:04:30.075Z,27.49
2023-02-13T04:24:35.164Z,30.78
2023-02-13T04:25:35.241Z,31.32
2023-02-13T04:26:35.313Z,32.34
2023-02-13T04:27:35.371Z,30.40
2023-02-13T04:28:35.464Z,28.42
2023-02-13T04:29:35.504Z,29.67
2023-02-13T04:30:35.715Z,28.58
2023-02-13T04:31:35.798Z,32.79
2023-02-13T04:32:35.703Z,29.59
2023-02-13T04:33:35.774Z,29.71
2023-02-13T04:34:35.832Z,30.74
2023-02-13T04:35:35.898Z,29.08
2023-02-13T04:36:35.961Z,29.80
2023-02-13T04:37:36.060Z,29.47
2023-02-13T04:38:36.095Z,30.50
2023-02-13T04:39:36.209Z,30.72
2023-02-13T04:40:36.233Z,29.61
2023-02-13T04:41:36.286Z,32.99
2023-02-13T04:42:36.341Z,31.41
2023-02-13T04:43:36.416Z,31.67
2023-02-13T04:44:36.487Z,31.74
2023-02-13T04:45:36.564Z,30.00
2023-02-13T04:46:36.616Z,30.10
2023-02-13T04:47:36.674Z,29.09
2023-02-13T04:48:38.721Z,29.37
2023-02-13T04:49:36.820Z,29.31
2023-02-13T04:50:36.894Z,28.45
2023-02-13T04:51:36.940Z,30.83
2023-02-13T04:52:37.018Z,30.14
2023-02-13T04:53:37.062Z,25.95
2023-02-13T04:54:37.133Z,29.73
2023-02-13T04:55:37.196Z,29.83
2023-02-13T04:56:37.260Z,29.98
2023-02-13T04:57:37.335Z,31.29
2023-02-13T04:58:37.385Z,29.92
2023-02-13T04:59:37.439Z,29.89
2023-02-13T05:00:37.530Z,29.00
2023-02-13T05:01:37.606Z,29.50
2023-02-13T05:02:39.349Z,30.78
2023-02-13T06:56:45.215Z,29.18
2023-02-13T06:57:45.270Z,31.46
2023-02-13T06:58:45.326Z,30.92
2023-02-13T06:59:45.397Z,30.72
2023-02-13T07:00:45.504Z,31.38
2023-02-13T07:01:45.529Z,30.94
2023-02-13T07:02:45.668Z,29.58
2023-02-13T07:03:45.668Z,33.28
2023-02-13T07:04:45.720Z,30.22
2023-02-13T07:05:45.783Z,30.71
2023-02-13T07:06:45.854Z,29.41
2023-02-13T07:07:45.923Z,29.86
2023-02-13T07:08:45.985Z,32.91
2023-02-13T07:09:46.057Z,29.10
2023-02-13T07:10:46.121Z,30.39
2023-02-13T07:11:46.200Z,30.35
2023-02-13T07:12:56.795Z,30.35
2023-02-13T07:13:47.251Z,30.53
2023-02-13T07:14:46.267Z,29.65
2023-02-13T07:15:46.375Z,30.90
2023-02-13T07:16:46.295Z,31.02
2023-02-13T07:17:46.329Z,31.74
2023-02-13T07:18:46.339Z,30.77
2023-02-13T07:19:46.353Z,30.45
2023-02-13T07:20:46.367Z,32.13
2023-02-13T07:21:46.377Z,32.61
2023-02-13T07:22:46.404Z,31.32
2023-02-13T07:23:46.422Z,33.33
2023-02-13T07:24:46.421Z,33.76
2023-02-13T07:25:46.493Z,32.15
2023-02-13T07:26:46.567Z,33.93
2023-02-13T07:27:46.625Z,29.75
2023-02-13T07:28:46.696Z,30.10
2023-02-13T07:29:46.769Z,31.00
2023-02-13T07:30:46.881Z,31.55
2023-02-13T07:31:46.930Z,30.74
2023-02-13T07:32:47.002Z,31.71
2023-02-13T07:33:47.024Z,30.53
2023-02-13T07:35:00.875Z,29.11
2023-02-13T07:35:48.117Z,29.28
2023-02-13T07:36:47.134Z,29.63
2023-02-13T07:37:47.146Z,30.37
2023-02-13T07:38:47.164Z,30.93
2023-02-13T07:39:47.195Z,31.63
2023-02-13T07:40:47.214Z,31.68
2023-02-13T07:41:47.241Z,31.32
2023-02-13T07:42:47.241Z,30.60
2023-02-13T07:43:47.257Z,29.27
2023-02-13T07:44:47.275Z,32.02
2023-02-13T07:45:47.299Z,29.88
2023-02-13T07:46:47.329Z,30.53
2023-02-13T07:47:47.327Z,30.88
2023-02-13T07:48:47.395Z,30.90
2023-02-13T07:49:47.458Z,30.53
2023-02-13T07:50:47.519Z,27.89
2023-02-13T07:51:47.595Z,34.28
2023-02-13T07:52:47.656Z,30.36
2023-02-13T07:53:47.737Z,30.95
2023-02-13T07:54:48.053Z,27.93
2023-02-13T07:55:47.864Z,27.27
2023-02-13T07:56:47.938Z,30.22
2023-02-13T07:57:48.007Z,30.47
2023-02-13T07:58:48.061Z,30.78
2023-02-13T07:59:48.132Z,31.91
2023-02-13T08:00:48.205Z,30.18
2023-02-13T08:01:48.365Z,29.75
2023-02-13T08:02:48.428Z,29.58
2023-02-13T08:03:48.510Z,28.28
2023-02-13T08:04:48.494Z,30.23
2023-02-13T08:05:48.552Z,32.07
2023-02-13T08:06:48.624Z,29.65
2023-02-13T08:07:48.689Z,33.01
2023-02-13T08:08:48.759Z,29.01
2023-02-13T08:09:48.813Z,30.50
2023-02-13T08:10:48.897Z,31.68
2023-02-13T08:11:48.956Z,30.37
2023-02-13T08:12:49.018Z,30.68
2023-02-13T08:13:49.097Z,30.88
2023-02-13T08:14:49.165Z,30.53
2023-02-13T08:15:49.228Z,32.28
2023-02-13T08:16:49.369Z,30.82
2023-02-13T08:17:49.368Z,33.09
2023-02-13T10:56:55.300Z,42.50
2023-02-13T11:36:55.154Z,40.15
2023-02-13T11:37:55.162Z,41.30
2023-02-13T11:38:55.190Z,39.57
2023-02-13T11:39:55.202Z,41.82
2023-02-13T11:40:55.205Z,40.80
2023-02-13T11:41:55.236Z,42.28
2023-02-13T11:42:55.241Z,40.55
2023-02-13T11:43:55.255Z,39.41
2023-02-13T11:44:55.267Z,41.11
2023-02-13T11:45:55.286Z,36.23
2023-02-13T11:46:55.338Z,40.54
2023-02-13T11:47:55.314Z,39.80
2023-02-13T11:48:55.330Z,40.23
2023-02-13T11:49:55.350Z,39.91
2023-02-13T11:50:55.362Z,40.56
2023-02-13T11:51:55.380Z,40.35
2023-02-13T11:52:55.428Z,39.41
2023-02-13T11:53:55.421Z,39.55
2023-02-13T11:54:55.450Z,39.59
2023-02-13T11:55:55.920Z,38.58
2023-02-13T11:57:07.350Z,39.07
2023-02-13T11:57:56.500Z,39.15
2023-02-13T11:58:55.554Z,39.52
2023-02-13T11:59:55.511Z,39.07
2023-02-13T12:00:55.538Z,39.46
2023-02-13T12:01:55.528Z,37.48
2023-02-13T12:02:55.683Z,36.44
2023-02-13T12:03:55.596Z,35.85
2023-02-13T12:04:55.571Z,35.45
2023-02-13T12:05:56.102Z,38.46
2023-02-13T12:06:55.569Z,36.76
2023-02-13T12:07:55.577Z,36.81
2023-02-13T12:08:55.579Z,35.19
2023-02-13T12:09:55.597Z,39.59
2023-02-13T12:10:55.598Z,35.76
2023-02-13T12:11:55.606Z,37.28
2023-02-13T12:12:55.629Z,35.96
2023-02-13T12:13:55.628Z,37.55
2023-02-13T12:14:55.621Z,38.85
2023-02-13T12:15:56.005Z,36.90
2023-02-13T12:16:55.701Z,36.77
2023-02-13T12:17:55.654Z,36.64
2023-02-13T12:18:55.660Z,38.23
2023-02-13T12:19:55.684Z,37.58
2023-02-13T12:20:56.215Z,36.44
2023-02-13T12:21:55.685Z,39.80
2023-02-13T12:22:55.691Z,37.75
2023-02-13T12:23:55.693Z,39.75
2023-02-13T12:24:55.721Z,38.35
2023-02-13T12:25:55.813Z,36.23
2023-02-13T12:26:55.799Z,38.30
2023-02-13T12:27:55.830Z,38.28
2023-02-13T12:28:55.912Z,39.08
2023-02-13T12:29:55.903Z,39.84
2023-02-13T12:30:56.045Z,37.72
2023-02-13T12:31:56.012Z,36.10
2023-02-13T12:32:56.094Z,35.59
2023-02-13T12:33:56.046Z,39.97
2023-02-13T12:34:56.085Z,39.07
2023-02-13T12:35:56.113Z,35.97
2023-02-13T12:36:56.167Z,38.15
2023-02-13T12:37:56.207Z,38.48
2023-02-13T12:38:56.243Z,37.47
2023-02-13T12:39:56.287Z,37.02
2023-02-13T12:40:56.860Z,37.78
2023-02-13T12:41:56.360Z,39.42
2023-02-13T12:42:56.413Z,39.12
2023-02-13T12:43:56.446Z,37.07
2023-02-13T12:44:56.498Z,39.65
2023-02-13T12:45:56.649Z,38.47
2023-02-13T12:46:56.546Z,41.72
2023-02-13T12:47:56.593Z,39.01
2023-02-13T12:48:56.639Z,37.49
2023-02-13T12:49:56.674Z,38.68
2023-02-13T12:50:57.098Z,39.19
2023-02-13T12:51:56.787Z,39.48
2023-02-13T12:52:56.809Z,38.64
2023-02-13T12:53:56.858Z,38.98
2023-02-13T12:54:56.897Z,39.74
2023-02-13T12:55:56.943Z,38.56
2023-02-13T12:56:56.982Z,40.33
2023-02-13T12:57:57.052Z,40.89
2023-02-13T12:58:57.091Z,37.72
2023-02-13T12:59:57.130Z,37.28
2023-02-13T13:00:57.660Z,40.68
2023-02-13T13:01:57.252Z,38.37
2023-02-13T13:02:57.267Z,38.31
2023-02-13T13:03:57.355Z,41.83
2023-02-13T13:04:57.380Z,44.21
2023-02-13T13:06:08.850Z,39.03
2023-02-13T13:06:58.448Z,39.21
2023-02-13T13:07:57.460Z,39.47
2023-02-13T13:08:57.445Z,39.46
2023-02-13T13:09:57.454Z,41.44
2023-02-13T13:10:57.730Z,38.49
2023-02-13T13:11:57.460Z,38.20
2023-02-13T13:12:57.483Z,41.05
2023-02-13T13:13:57.491Z,42.42
2023-02-13T13:14:57.481Z,38.73
2023-02-13T13:15:57.481Z,41.29
2023-02-13T13:16:57.534Z,40.47
2023-02-13T13:17:57.561Z,42.20
2023-02-13T13:18:57.606Z,39.35
2023-02-13T13:19:57.661Z,37.92
2023-02-13T13:20:58.033Z,40.10
2023-02-13T13:22:00.359Z,40.39
2023-02-13T13:22:57.991Z,38.32
2023-02-13T13:23:58.028Z,40.09
2023-02-13T13:24:58.091Z,37.22
2023-02-13T13:25:58.148Z,38.80
2023-02-13T13:26:58.206Z,39.79
2023-02-13T13:27:58.266Z,40.36
2023-02-13T13:28:58.333Z,37.62
2023-02-13T13:29:58.421Z,39.74
2023-02-13T13:30:58.886Z,39.84
2023-02-13T13:31:58.658Z,38.49
2023-02-13T13:32:58.543Z,37.91
2023-02-13T13:33:58.601Z,41.60
2023-02-13T13:34:58.658Z,38.96
2023-02-13T13:35:58.742Z,38.12
2023-02-13T13:36:58.790Z,39.27
2023-02-13T13:37:58.838Z,39.69
2023-02-13T13:39:00.659Z,40.41
2023-02-13T13:39:58.903Z,38.23
2023-02-13T13:40:59.240Z,37.66
2023-02-13T13:41:58.933Z,44.41
2023-02-13T13:42:58.926Z,39.10
2023-02-13T13:43:58.930Z,42.39
2023-02-13T13:44:58.939Z,37.80
2023-02-13T13:45:59.406Z,40.26
2023-02-13T13:46:58.939Z,41.12
2023-02-13T13:47:58.945Z,40.09
2023-02-13T13:48:58.995Z,38.40
2023-02-13T13:49:58.950Z,40.81
2023-02-13T13:50:59.291Z,38.32
2023-02-13T13:51:58.980Z,42.09
2023-02-13T13:52:58.981Z,40.40
2023-02-13T13:53:58.971Z,39.37
2023-02-13T13:54:58.991Z,38.08
2023-02-13T13:55:58.989Z,39.29
2023-02-13T13:56:59.013Z,38.24
2023-02-13T13:57:59.024Z,41.57
2023-02-13T13:58:59.016Z,37.71
2023-02-13T13:59:59.037Z,39.35
2023-02-13T14:00:59.344Z,39.35
2023-02-13T14:01:59.057Z,40.75
2023-02-13T14:02:59.080Z,40.20
2023-02-13T14:03:59.086Z,37.88
2023-02-13T14:04:59.088Z,39.45
2023-02-13T14:05:59.109Z,36.96
2023-02-13T14:06:59.103Z,40.93
2023-02-13T14:07:59.117Z,37.26
2023-02-13T14:08:59.121Z,35.61
2023-02-13T14:09:59.125Z,37.42
2023-02-13T14:10:59.448Z,40.58
2023-02-13T14:11:59.132Z,40.34
2023-02-13T14:12:59.142Z,38.12
2023-02-13T14:13:59.166Z,39.61
2023-02-13T14:14:59.231Z,38.97
2023-02-13T14:15:59.367Z,37.78
2023-02-13T14:16:59.368Z,37.95
2023-02-13T14:17:59.432Z,39.27
2023-02-13T14:18:59.516Z,35.38
2023-02-13T14:19:59.598Z,40.31
2023-02-13T14:21:00.084Z,37.18
2023-02-13T14:21:59.746Z,40.47
2023-02-13T14:22:59.821Z,40.36
2023-02-13T14:23:59.879Z,37.54
2023-02-13T14:24:59.958Z,35.68
2023-02-13T14:26:00.034Z,37.67
2023-02-13T14:27:05.765Z,38.79
2023-02-13T14:29:00.125Z,39.21
2023-02-13T14:30:00.265Z,38.53
2023-02-13T14:31:00.516Z,39.44
2023-02-13T14:32:00.272Z,37.12
2023-02-13T14:33:00.167Z,38.36
2023-02-13T14:34:00.178Z,36.90
2023-02-13T14:35:00.256Z,36.04
2023-02-13T14:36:00.212Z,38.52
2023-02-13T14:37:00.316Z,38.01
2023-02-13T14:38:00.374Z,38.76
2023-02-13T14:39:00.444Z,35.20
2023-02-13T14:40:00.528Z,36.55
2023-02-13T14:48:01.135Z,34.79
2023-02-13T15:40:05.258Z,36.53
2023-02-13T15:41:05.331Z,34.89
2023-02-13T15:42:05.415Z,34.42
2023-02-13T15:43:05.507Z,37.10
2023-02-13T15:44:05.600Z,36.18
2023-02-13T15:45:05.697Z,35.99
2023-02-13T15:46:05.826Z,36.23
2023-02-13T15:47:07.299Z,35.26
2023-02-13T15:48:05.957Z,37.05
2023-02-13T15:49:06.049Z,35.18
2023-02-13T15:50:06.170Z,34.44
2023-02-13T15:51:06.250Z,36.53
2023-02-13T15:52:06.317Z,36.12
2023-02-13T15:53:06.413Z,34.95
2023-02-13T15:54:06.485Z,33.88
2023-02-13T15:55:06.562Z,35.53
2023-02-13T15:56:06.616Z,33.83
2023-02-13T15:57:06.749Z,32.50
2023-02-13T15:58:06.775Z,35.96
2023-02-13T15:59:06.885Z,33.17
2023-02-13T16:00:06.949Z,33.71
2023-02-13T16:01:07.042Z,36.37
2023-02-13T16:02:07.225Z,37.09
2023-02-13T16:03:07.359Z,34.13
2023-02-13T16:04:07.309Z,35.32
2023-02-13T16:05:07.337Z,31.76
2023-02-13T16:06:07.393Z,34.50
2023-02-13T16:07:07.425Z,34.23
2023-02-13T16:08:07.450Z,34.71
2023-02-13T16:09:07.499Z,33.46
2023-02-13T16:10:07.544Z,33.04
2023-02-13T16:11:07.538Z,35.13
2023-02-13T16:12:07.601Z,35.27
2023-02-13T16:13:07.594Z,36.54
2023-02-13T16:14:07.671Z,33.20
2023-02-13T16:15:07.680Z,35.33
2023-02-13T16:16:07.730Z,33.48
2023-02-13T16:17:07.696Z,34.97
2023-02-13T16:18:07.696Z,32.24
2023-02-13T16:19:07.718Z,32.82
2023-02-13T16:20:07.747Z,33.18
2023-02-13T16:21:07.757Z,31.71
2023-02-13T16:22:07.804Z,33.03
2023-02-13T16:23:07.800Z,33.02
2023-02-13T16:24:07.818Z,33.71
2023-02-13T16:25:07.840Z,33.16
2023-02-13T16:26:07.873Z,32.16
2023-02-13T16:27:07.880Z,33.38
2023-02-13T16:28:07.885Z,34.20
2023-02-13T16:29:07.909Z,33.06
2023-02-13T16:30:07.967Z,32.23
2023-02-13T16:31:08.006Z,32.56
2023-02-13T16:32:08.005Z,34.33
2023-02-13T16:33:07.977Z,32.51
2023-02-13T16:34:07.993Z,34.56
2023-02-13T16:35:08.014Z,34.00
2023-02-13T16:36:08.032Z,34.26
2023-02-13T16:37:08.063Z,33.60
2023-02-13T16:38:08.078Z,35.48
2023-02-13T16:39:08.109Z,31.81
2023-02-13T16:40:08.133Z,32.75
2023-02-13T16:41:08.149Z,33.83
2023-02-13T16:42:08.203Z,31.75
2023-02-13T16:43:08.159Z,33.74
2023-02-13T16:44:08.181Z,35.31
2023-02-13T16:45:08.208Z,30.70
2023-02-13T16:46:08.297Z,33.99
2023-02-13T16:47:08.241Z,33.45
2023-02-13T16:48:08.269Z,32.12
2023-02-13T16:49:08.292Z,32.59
2023-02-13T16:50:08.305Z,32.15
2023-02-13T16:51:08.314Z,33.82
2023-02-13T16:52:08.354Z,30.74
2023-02-13T16:53:08.358Z,33.84
2023-02-13T16:54:08.393Z,32.80
2023-02-13T16:55:08.392Z,33.60
2023-02-13T16:56:08.416Z,32.80
2023-02-13T16:57:09.434Z,34.01
2023-02-13T16:58:08.457Z,33.14
2023-02-13T16:59:08.488Z,32.13
2023-02-13T17:00:08.558Z,31.67
2023-02-13T17:01:08.554Z,32.30
2023-02-13T17:02:08.550Z,31.75
2023-02-13T17:03:08.576Z,31.70
2023-02-13T17:04:08.694Z,32.36
2023-02-13T17:05:08.705Z,34.13
2023-02-13T17:06:08.628Z,32.48
2023-02-13T17:07:08.645Z,32.22
2023-02-13T17:08:08.679Z,32.73
2023-02-13T17:09:08.709Z,31.49
2023-02-13T17:10:08.740Z,32.33
2023-02-13T17:11:08.765Z,32.35
2023-02-13T17:12:08.771Z,30.44
2023-02-13T17:13:08.807Z,31.43
2023-02-13T17:14:08.824Z,31.85
2023-02-13T17:15:08.833Z,33.57
2023-02-13T17:16:08.947Z,31.18
2023-02-13T17:17:08.894Z,34.62
2023-02-13T17:18:08.920Z,32.47
2023-02-13T17:19:08.946Z,30.72
2023-02-13T17:20:08.972Z,32.38
2023-02-13T17:21:09.002Z,30.13
2023-02-13T17:22:09.024Z,32.52
2023-02-13T17:23:09.062Z,31.32
2023-02-13T17:24:09.079Z,33.10
2023-02-13T17:25:09.116Z,29.52
2023-02-13T17:26:09.131Z,30.54
2023-02-13T17:27:09.146Z,31.28
2023-02-13T17:28:09.165Z,30.58
2023-02-13T17:29:09.216Z,32.32
2023-02-13T17:30:09.303Z,28.69
2023-02-13T17:31:09.331Z,31.95
2023-02-13T17:32:09.322Z,30.30
2023-02-13T17:33:09.307Z,29.47
2023-02-13T17:34:09.335Z,29.93
2023-02-13T17:35:09.365Z,31.34
2023-02-13T17:36:09.421Z,31.15
2023-02-13T17:37:09.412Z,31.52
2023-02-13T17:38:09.456Z,30.95
2023-02-13T17:39:09.462Z,30.41
2023-02-13T17:40:09.490Z,31.68
2023-02-13T17:41:09.531Z,30.39
2023-02-13T17:42:09.554Z,29.44
2023-02-13T17:43:09.577Z,29.01
2023-02-13T17:44:09.617Z,30.63
2023-02-13T17:45:09.624Z,30.41
2023-02-13T17:46:09.790Z,28.14
2023-02-13T17:47:09.688Z,31.40
2023-02-13T17:48:09.720Z,29.41
2023-02-13T17:49:09.761Z,29.80
2023-02-13T17:50:10.999Z,31.76
2023-02-13T17:51:09.811Z,29.22
2023-02-13T17:52:09.842Z,29.76
2023-02-13T17:53:09.873Z,30.50
2023-02-13T17:54:09.914Z,29.96
2023-02-13T17:55:09.949Z,32.20
2023-02-13T17:56:09.984Z,30.70
2023-02-13T17:57:10.943Z,31.21
2023-02-13T17:58:10.051Z,30.47
2023-02-13T17:59:10.082Z,28.63
2023-02-13T18:00:10.096Z,29.39
2023-02-13T18:01:10.214Z,31.02
2023-02-13T18:02:10.160Z,29.33
2023-02-13T18:03:10.203Z,30.89
2023-02-13T18:04:10.254Z,28.34
2023-02-13T18:05:10.251Z,28.06
2023-02-13T18:06:10.290Z,29.54
2023-02-13T18:07:10.335Z,30.97
2023-02-13T18:08:10.378Z,29.74
2023-02-13T18:09:10.406Z,31.27
2023-02-13T18:10:12.121Z,27.70
2023-02-13T18:11:10.604Z,30.30
2023-02-13T18:12:10.642Z,29.86
2023-02-13T18:13:10.664Z,30.21
2023-02-13T18:14:10.708Z,28.17
2023-02-13T18:15:10.752Z,27.30
2023-02-13T18:16:10.787Z,30.23
2023-02-13T19:55:15.182Z,27.60
2023-02-13T19:56:15.243Z,31.16
2023-02-13T19:57:15.294Z,31.01
2023-02-13T19:58:15.342Z,29.15
2023-02-13T19:59:15.407Z,30.96
2023-02-13T20:00:15.445Z,29.70
2023-02-13T20:01:15.510Z,29.10
2023-02-13T20:02:15.561Z,25.82
2023-02-13T20:03:15.638Z,28.52
2023-02-13T20:04:15.672Z,28.52
2023-02-13T20:05:15.723Z,30.55
2023-02-13T20:06:15.783Z,31.11
2023-02-13T20:07:15.827Z,25.00
2023-02-13T20:08:15.887Z,31.00
2023-02-13T20:09:15.928Z,29.90
2023-02-13T20:10:16.008Z,31.07
2023-02-13T20:11:16.060Z,31.56
2023-02-13T20:12:16.117Z,31.09
2023-02-13T20:13:16.159Z,28.63
2023-02-13T20:14:16.244Z,31.09
2023-02-13T20:15:16.273Z,29.01
2023-02-13T20:16:16.388Z,29.41
2023-02-13T20:17:16.382Z,30.28
2023-02-13T20:18:16.444Z,29.22
2023-02-13T20:19:16.515Z,30.19
2023-02-13T20:20:16.574Z,30.39
2023-02-13T20:21:16.620Z,28.13
2023-02-13T20:22:16.675Z,28.13
2023-02-13T20:23:16.734Z,27.74
2023-02-13T20:24:16.778Z,28.75
2023-02-13T20:25:16.833Z,26.41
2023-02-13T20:26:16.956Z,27.02
2023-02-13T20:27:16.956Z,27.91
2023-02-13T20:28:17.011Z,28.89
2023-02-13T20:29:17.056Z,30.71
2023-02-13T20:30:17.154Z,27.70
2023-02-13T20:31:17.249Z,28.63
2023-02-13T20:32:17.258Z,29.11
2023-02-13T20:33:17.299Z,28.96
2023-02-13T20:34:17.339Z,31.32
2023-02-13T20:35:17.380Z,30.09
2023-02-13T20:36:17.441Z,31.05
2023-02-13T20:37:17.493Z,31.69
2023-02-13T20:38:17.561Z,30.51
2023-02-13T20:39:17.613Z,32.01
2023-02-13T20:40:17.671Z,28.52
2023-02-13T20:41:17.726Z,28.67
2023-02-13T20:42:17.791Z,27.09
2023-02-13T20:43:17.847Z,28.84
2023-02-13T20:44:17.904Z,28.63
2023-02-13T20:45:17.960Z,28.32
2023-02-13T20:46:18.014Z,29.00
2023-02-13T20:47:18.088Z,27.79
2023-02-13T20:48:18.131Z,31.67
2023-02-13T20:49:18.188Z,29.59
2023-02-13T20:50:18.253Z,30.39
2023-02-13T20:51:18.317Z,25.04
2023-02-13T20:52:18.382Z,29.68
2023-02-13T20:53:18.431Z,29.28
2023-02-13T20:54:18.490Z,30.93
2023-02-13T20:55:18.543Z,27.55
2023-02-13T20:56:18.613Z,27.70
2023-02-13T20:57:18.677Z,33.33
2023-02-13T20:58:18.748Z,28.27
2023-02-13T20:59:18.797Z,25.00
2023-02-13T21:00:18.858Z,29.52
2023-02-13T21:01:18.993Z,31.44
2023-02-13T21:02:19.026Z,28.47
2023-02-13T21:03:19.037Z,26.37
2023-02-13T21:04:19.236Z,29.07
2023-02-13T21:05:19.160Z,28.81
2023-02-13T21:06:19.211Z,27.66
2023-02-13T21:07:19.269Z,29.02
2023-02-13T21:08:20.006Z,30.84
2023-02-13T21:09:19.384Z,28.26
2023-02-13T21:10:19.452Z,30.84
2023-02-13T21:11:19.517Z,29.11
2023-02-13T21:12:19.570Z,29.53
2023-02-13T21:13:19.639Z,30.06
2023-02-13T21:14:19.685Z,29.21
2023-02-13T21:15:19.759Z,30.31
2023-02-13T21:16:19.829Z,27.79
2023-02-13T21:17:19.887Z,29.01
2023-02-13T21:18:21.417Z,32.21
2023-02-13T21:19:20.000Z,28.30
2023-02-13T21:20:20.049Z,30.19
2023-02-13T21:21:20.096Z,27.68
2023-02-13T21:22:20.161Z,30.23
2023-02-13T21:23:20.233Z,31.03
2023-02-13T21:24:20.309Z,29.96
2023-02-13T22:42:25.204Z,30.65
2023-02-13T22:43:25.265Z,29.65
2023-02-13T22:44:25.336Z,30.38
2023-02-13T22:45:25.402Z,30.62
2023-02-13T22:46:25.521Z,29.30
2023-02-13T22:47:25.534Z,31.23
2023-02-13T22:48:25.600Z,27.20
2023-02-13T22:52:25.864Z,29.76
2023-02-13T22:53:25.923Z,29.64
2023-02-13T22:54:25.990Z,27.31
2023-02-13T22:55:26.048Z,32.26
2023-02-13T22:56:26.119Z,26.87
2023-02-13T22:57:26.193Z,29.52
2023-02-13T22:58:26.260Z,30.86
2023-02-13T22:59:26.331Z,30.72
2023-02-13T23:00:26.396Z,27.90
2023-02-13T23:01:26.458Z,30.49
2023-02-13T23:02:26.647Z,29.29
2023-02-13T23:03:26.597Z,29.42
2023-02-13T23:04:26.701Z,30.49
2023-02-13T23:05:26.723Z,26.63
2023-02-13T23:06:26.783Z,28.73
2023-02-13T23:07:26.845Z,30.69
2023-02-13T23:08:26.925Z,31.61
2023-02-13T23:09:26.990Z,29.11
2023-02-13T23:10:27.050Z,26.96
2023-02-13T23:11:27.137Z,28.79
2023-02-13T23:12:27.189Z,32.40
2023-02-13T23:13:27.252Z,30.47
2023-02-13T23:14:27.335Z,27.81
2023-02-13T23:15:27.395Z,31.58
2023-02-13T23:16:27.467Z,28.78
2023-02-13T23:17:27.557Z,30.45
2023-02-13T23:18:27.627Z,32.32
2023-02-13T23:19:27.869Z,27.27
2023-02-13T23:20:27.764Z,31.25
2023-02-13T23:21:27.842Z,31.30
2023-02-13T23:22:27.909Z,31.03
2023-02-13T23:23:27.972Z,30.29
2023-02-13T23:24:28.048Z,28.32
2023-02-13T23:25:28.116Z,28.51
2023-02-13T23:26:28.190Z,29.74
2023-02-13T23:27:28.261Z,27.52
2023-02-13T23:28:28.330Z,29.49
2023-02-13T23:29:28.436Z,32.46
2023-02-13T23:30:28.586Z,28.53
2023-02-13T23:31:28.663Z,30.92
2023-02-13T23:32:28.609Z,28.01
2023-02-13T23:33:28.667Z,31.89
2023-02-13T23:34:28.741Z,32.06
2023-02-13T23:35:28.816Z,28.24
2023-02-13T23:36:28.888Z,29.16
2023-02-13T23:37:28.969Z,28.04
2023-02-13T23:38:29.035Z,30.88
2023-02-13T23:39:29.086Z,28.60
2023-02-13T23:40:29.176Z,31.55
2023-02-13T23:41:29.237Z,28.37
2023-02-13T23:42:29.287Z,29.18
2023-02-13T23:43:29.360Z,29.08
2023-02-13T23:44:29.438Z,28.78
2023-02-13T23:45:29.509Z,29.71
2023-02-13T23:46:29.578Z,30.25
2023-02-13T23:47:29.624Z,29.58
2023-02-13T23:48:29.706Z,29.52
2023-02-13T23:49:29.762Z,31.13
2023-02-13T23:50:29.837Z,31.64
2023-02-13T23:51:29.906Z,29.76
2023-02-13T23:52:29.973Z,31.91
2023-02-13T23:53:30.053Z,28.76
2023-02-13T23:54:30.114Z,31.36
2023-02-13T23:55:30.197Z,31.46
2023-02-13T23:56:30.267Z,29.99
2023-02-13T23:57:30.330Z,27.10
2023-02-13T23:58:30.406Z,32.26
2023-02-13T23:59:30.471Z,28.23
